sensor_id;sensor_type;location;lat;lon;timestamp;P1;durP1;ratioP1;P2;durP2;ratioP2
71464;SDS011;59274;49.874;9.154;2023-07-13T00:02:21;4.03;;;1.15;;
71464;SDS011;59274;49.874;9.154;2023-07-13T00:04:46;2.40;;;1.10;;
71464;SDS011;59274;49.874;9.154;2023-07-13T00:07:12;3.95;;;1.10;;
71464;SDS011;59274;49.874;9.154;2023-07-13T00:09:39;3.08;;;1.13;;
71464;SDS011;59274;49.874;9.154;2023-07-13T00:12:20;5.77;;;1.40;;
71464;SDS011;59274;49.874;9.154;2023-07-13T00:14:51;2.97;;;1.60;;
71464;SDS011;59274;49.874;9.154;2023-07-13T00:17:16;3.53;;;1.45;;
71464;SDS011;59274;49.874;9.154;2023-07-13T00:19:42;2.53;;;1.20;;
71464;SDS011;59274;49.874;9.154;2023-07-13T00:22:07;3.07;;;1.50;;
71464;SDS011;59274;49.874;9.154;2023-07-13T00:24:33;2.27;;;1.40;;
71464;SDS011;59274;49.874;9.154;2023-07-13T00:26:59;4.30;;;1.30;;
71464;SDS011;59274;49.874;9.154;2023-07-13T00:29:25;4.33;;;1.27;;
71464;SDS011;59274;49.874;9.154;2023-07-13T00:31:51;4.10;;;1.40;;
71464;SDS011;59274;49.874;9.154;2023-07-13T00:34:19;2.47;;;1.30;;
71464;SDS011;59274;49.874;9.154;2023-07-13T00:36:45;4.03;;;1.20;;
71464;SDS011;59274;49.874;9.154;2023-07-13T00:39:10;3.97;;;1.53;;
71464;SDS011;59274;49.874;9.154;2023-07-13T00:41:36;3.35;;;1.40;;
71464;SDS011;59274;49.874;9.154;2023-07-13T00:44:04;4.95;;;1.70;;
71464;SDS011;59274;49.874;9.154;2023-07-13T00:46:30;3.83;;;1.40;;
71464;SDS011;59274;49.874;9.154;2023-07-13T00:49:02;3.40;;;1.40;;
71464;SDS011;59274;49.874;9.154;2023-07-13T00:51:45;3.78;;;1.58;;
71464;SDS011;59274;49.874;9.154;2023-07-13T00:54:19;3.45;;;1.48;;
71464;SDS011;59274;49.874;9.154;2023-07-13T00:56:48;4.20;;;1.55;;
71464;SDS011;59274;49.874;9.154;2023-07-13T00:59:16;2.90;;;1.50;;
71464;SDS011;59274;49.874;9.154;2023-07-13T01:01:44;3.30;;;1.40;;
71464;SDS011;59274;49.874;9.154;2023-07-13T01:04:10;3.45;;;1.23;;
71464;SDS011;59274;49.874;9.154;2023-07-13T01:06:37;4.73;;;1.80;;
71464;SDS011;59274;49.874;9.154;2023-07-13T01:09:04;3.63;;;1.40;;
71464;SDS011;59274;49.874;9.154;2023-07-13T01:11:32;3.05;;;1.33;;
71464;SDS011;59274;49.874;9.154;2023-07-13T01:13:57;3.53;;;1.43;;
71464;SDS011;59274;49.874;9.154;2023-07-13T01:16:27;5.23;;;1.60;;
71464;SDS011;59274;49.874;9.154;2023-07-13T01:18:55;5.03;;;1.70;;
71464;SDS011;59274;49.874;9.154;2023-07-13T01:21:24;2.90;;;1.20;;
71464;SDS011;59274;49.874;9.154;2023-07-13T01:23:50;2.60;;;1.38;;
71464;SDS011;59274;49.874;9.154;2023-07-13T01:26:16;3.47;;;1.50;;
71464;SDS011;59274;49.874;9.154;2023-07-13T01:28:41;4.30;;;1.40;;
71464;SDS011;59274;49.874;9.154;2023-07-13T01:31:06;4.50;;;1.60;;
71464;SDS011;59274;49.874;9.154;2023-07-13T01:33:33;4.68;;;1.45;;
71464;SDS011;59274;49.874;9.154;2023-07-13T01:35:59;3.03;;;1.60;;
71464;SDS011;59274;49.874;9.154;2023-07-13T01:38:25;3.20;;;1.40;;
71464;SDS011;59274;49.874;9.154;2023-07-13T01:40:51;6.53;;;1.70;;
71464;SDS011;59274;49.874;9.154;2023-07-13T01:43:17;3.35;;;1.40;;
71464;SDS011;59274;49.874;9.154;2023-07-13T01:45:44;6.57;;;1.52;;
71464;SDS011;59274;49.874;9.154;2023-07-13T01:48:10;3.92;;;1.50;;
71464;SDS011;59274;49.874;9.154;2023-07-13T01:50:36;3.72;;;1.67;;
71464;SDS011;59274;49.874;9.154;2023-07-13T01:53:02;2.13;;;1.13;;
71464;SDS011;59274;49.874;9.154;2023-07-13T01:55:28;4.05;;;1.40;;
71464;SDS011;59274;49.874;9.154;2023-07-13T01:57:55;5.50;;;1.65;;
71464;SDS011;59274;49.874;9.154;2023-07-13T02:00:21;2.85;;;1.50;;
71464;SDS011;59274;49.874;9.154;2023-07-13T02:02:46;4.23;;;1.80;;
71464;SDS011;59274;49.874;9.154;2023-07-13T02:05:12;3.70;;;1.60;;
71464;SDS011;59274;49.874;9.154;2023-07-13T02:07:38;4.60;;;1.60;;
71464;SDS011;59274;49.874;9.154;2023-07-13T02:10:04;7.18;;;1.70;;
71464;SDS011;59274;49.874;9.154;2023-07-13T02:12:31;3.42;;;1.70;;
71464;SDS011;59274;49.874;9.154;2023-07-13T02:14:57;3.83;;;1.80;;
71464;SDS011;59274;49.874;9.154;2023-07-13T02:17:22;4.33;;;1.40;;
71464;SDS011;59274;49.874;9.154;2023-07-13T02:19:48;4.18;;;1.60;;
71464;SDS011;59274;49.874;9.154;2023-07-13T02:22:13;3.87;;;1.53;;
71464;SDS011;59274;49.874;9.154;2023-07-13T02:24:39;3.70;;;1.57;;
71464;SDS011;59274;49.874;9.154;2023-07-13T02:27:04;3.50;;;1.40;;
71464;SDS011;59274;49.874;9.154;2023-07-13T02:29:30;3.33;;;1.40;;
71464;SDS011;59274;49.874;9.154;2023-07-13T02:31:56;4.10;;;1.70;;
71464;SDS011;59274;49.874;9.154;2023-07-13T02:34:21;3.23;;;1.50;;
71464;SDS011;59274;49.874;9.154;2023-07-13T02:36:47;3.83;;;1.53;;
71464;SDS011;59274;49.874;9.154;2023-07-13T02:39:13;5.77;;;1.77;;
71464;SDS011;59274;49.874;9.154;2023-07-13T02:41:38;4.38;;;1.70;;
71464;SDS011;59274;49.874;9.154;2023-07-13T02:44:04;4.25;;;1.52;;
71464;SDS011;59274;49.874;9.154;2023-07-13T02:46:31;5.68;;;1.67;;
71464;SDS011;59274;49.874;9.154;2023-07-13T02:48:58;4.57;;;1.80;;
71464;SDS011;59274;49.874;9.154;2023-07-13T02:51:23;7.78;;;1.88;;
71464;SDS011;59274;49.874;9.154;2023-07-13T02:53:48;4.40;;;1.87;;
71464;SDS011;59274;49.874;9.154;2023-07-13T02:56:14;3.77;;;1.70;;
71464;SDS011;59274;49.874;9.154;2023-07-13T02:58:39;4.83;;;2.00;;
71464;SDS011;59274;49.874;9.154;2023-07-13T03:01:06;5.72;;;2.20;;
71464;SDS011;59274;49.874;9.154;2023-07-13T03:03:33;5.25;;;2.42;;
71464;SDS011;59274;49.874;9.154;2023-07-13T03:06:02;6.65;;;2.20;;
71464;SDS011;59274;49.874;9.154;2023-07-13T03:08:29;4.65;;;1.92;;
71464;SDS011;59274;49.874;9.154;2023-07-13T03:11:01;5.65;;;1.65;;
71464;SDS011;59274;49.874;9.154;2023-07-13T03:13:28;4.63;;;1.60;;
71464;SDS011;59274;49.874;9.154;2023-07-13T03:15:59;3.20;;;1.60;;
71464;SDS011;59274;49.874;9.154;2023-07-13T03:18:26;4.23;;;1.93;;
71464;SDS011;59274;49.874;9.154;2023-07-13T03:20:52;3.00;;;1.45;;
71464;SDS011;59274;49.874;9.154;2023-07-13T03:23:18;3.97;;;1.90;;
71464;SDS011;59274;49.874;9.154;2023-07-13T03:25:44;4.00;;;1.58;;
71464;SDS011;59274;49.874;9.154;2023-07-13T03:28:10;5.50;;;1.50;;
71464;SDS011;59274;49.874;9.154;2023-07-13T03:30:36;4.80;;;1.92;;
71464;SDS011;59274;49.874;9.154;2023-07-13T03:33:02;2.83;;;1.50;;
71464;SDS011;59274;49.874;9.154;2023-07-13T03:35:28;3.28;;;1.60;;
71464;SDS011;59274;49.874;9.154;2023-07-13T03:37:53;3.70;;;1.80;;
71464;SDS011;59274;49.874;9.154;2023-07-13T03:40:19;3.37;;;1.87;;
71464;SDS011;59274;49.874;9.154;2023-07-13T03:42:44;8.57;;;2.15;;
71464;SDS011;59274;49.874;9.154;2023-07-13T03:45:10;5.77;;;2.20;;
71464;SDS011;59274;49.874;9.154;2023-07-13T03:47:35;5.33;;;2.03;;
71464;SDS011;59274;49.874;9.154;2023-07-13T03:50:00;7.17;;;1.70;;
71464;SDS011;59274;49.874;9.154;2023-07-13T03:52:26;4.80;;;2.03;;
71464;SDS011;59274;49.874;9.154;2023-07-13T03:54:52;5.77;;;2.10;;
71464;SDS011;59274;49.874;9.154;2023-07-13T03:57:18;10.20;;;2.73;;
71464;SDS011;59274;49.874;9.154;2023-07-13T03:59:43;6.03;;;2.28;;
71464;SDS011;59274;49.874;9.154;2023-07-13T04:02:09;5.70;;;2.10;;
71464;SDS011;59274;49.874;9.154;2023-07-13T04:04:35;5.43;;;2.30;;
71464;SDS011;59274;49.874;9.154;2023-07-13T04:07:00;6.47;;;2.20;;
71464;SDS011;59274;49.874;9.154;2023-07-13T04:09:25;5.27;;;2.13;;
71464;SDS011;59274;49.874;9.154;2023-07-13T04:11:51;8.20;;;2.40;;
71464;SDS011;59274;49.874;9.154;2023-07-13T04:14:16;4.27;;;1.80;;
71464;SDS011;59274;49.874;9.154;2023-07-13T04:16:42;3.57;;;2.03;;
71464;SDS011;59274;49.874;9.154;2023-07-13T04:19:08;2.97;;;1.42;;
71464;SDS011;59274;49.874;9.154;2023-07-13T04:21:35;5.05;;;1.88;;
71464;SDS011;59274;49.874;9.154;2023-07-13T04:24:02;6.50;;;1.77;;
71464;SDS011;59274;49.874;9.154;2023-07-13T04:26:29;6.25;;;1.90;;
71464;SDS011;59274;49.874;9.154;2023-07-13T04:28:55;3.97;;;1.73;;
71464;SDS011;59274;49.874;9.154;2023-07-13T04:31:21;5.05;;;2.20;;
71464;SDS011;59274;49.874;9.154;2023-07-13T04:33:47;4.88;;;2.47;;
71464;SDS011;59274;49.874;9.154;2023-07-13T04:36:13;5.57;;;2.30;;
71464;SDS011;59274;49.874;9.154;2023-07-13T04:38:39;5.50;;;2.08;;
71464;SDS011;59274;49.874;9.154;2023-07-13T04:41:06;5.28;;;2.60;;
71464;SDS011;59274;49.874;9.154;2023-07-13T04:43:33;5.75;;;1.83;;
71464;SDS011;59274;49.874;9.154;2023-07-13T04:46:03;7.25;;;2.10;;
71464;SDS011;59274;49.874;9.154;2023-07-13T04:48:31;4.27;;;1.87;;
71464;SDS011;59274;49.874;9.154;2023-07-13T04:50:57;4.70;;;1.90;;
71464;SDS011;59274;49.874;9.154;2023-07-13T04:53:23;5.90;;;2.22;;
71464;SDS011;59274;49.874;9.154;2023-07-13T04:55:50;7.63;;;3.27;;
71464;SDS011;59274;49.874;9.154;2023-07-13T04:58:15;6.57;;;2.97;;
71464;SDS011;59274;49.874;9.154;2023-07-13T05:00:41;6.23;;;2.50;;
71464;SDS011;59274;49.874;9.154;2023-07-13T05:03:06;4.93;;;2.17;;
71464;SDS011;59274;49.874;9.154;2023-07-13T05:05:31;5.00;;;1.95;;
71464;SDS011;59274;49.874;9.154;2023-07-13T05:07:57;4.87;;;1.70;;
71464;SDS011;59274;49.874;9.154;2023-07-13T05:10:23;3.55;;;1.63;;
71464;SDS011;59274;49.874;9.154;2023-07-13T05:12:49;3.47;;;1.47;;
71464;SDS011;59274;49.874;9.154;2023-07-13T05:15:15;4.22;;;1.60;;
71464;SDS011;59274;49.874;9.154;2023-07-13T05:17:40;4.18;;;1.52;;
71464;SDS011;59274;49.874;9.154;2023-07-13T05:20:07;5.57;;;1.20;;
71464;SDS011;59274;49.874;9.154;2023-07-13T05:22:33;2.20;;;1.30;;
71464;SDS011;59274;49.874;9.154;2023-07-13T05:25:00;5.13;;;1.40;;
71464;SDS011;59274;49.874;9.154;2023-07-13T05:27:26;2.38;;;1.02;;
71464;SDS011;59274;49.874;9.154;2023-07-13T05:29:52;3.92;;;1.75;;
71464;SDS011;59274;49.874;9.154;2023-07-13T05:32:17;6.30;;;2.80;;
71464;SDS011;59274;49.874;9.154;2023-07-13T05:34:43;7.37;;;2.30;;
71464;SDS011;59274;49.874;9.154;2023-07-13T05:37:09;5.40;;;2.38;;
71464;SDS011;59274;49.874;9.154;2023-07-13T05:39:34;5.40;;;2.33;;
71464;SDS011;59274;49.874;9.154;2023-07-13T05:42:00;5.07;;;1.80;;
71464;SDS011;59274;49.874;9.154;2023-07-13T05:44:25;7.20;;;2.70;;
71464;SDS011;59274;49.874;9.154;2023-07-13T05:46:51;6.00;;;2.10;;
71464;SDS011;59274;49.874;9.154;2023-07-13T05:49:16;6.17;;;2.00;;
71464;SDS011;59274;49.874;9.154;2023-07-13T05:51:41;4.83;;;2.10;;
71464;SDS011;59274;49.874;9.154;2023-07-13T05:54:07;5.73;;;2.57;;
71464;SDS011;59274;49.874;9.154;2023-07-13T05:56:32;4.90;;;2.03;;
71464;SDS011;59274;49.874;9.154;2023-07-13T05:59:01;5.03;;;1.83;;
71464;SDS011;59274;49.874;9.154;2023-07-13T06:01:26;6.70;;;2.63;;
71464;SDS011;59274;49.874;9.154;2023-07-13T06:03:51;5.40;;;2.00;;
71464;SDS011;59274;49.874;9.154;2023-07-13T06:06:17;6.17;;;2.20;;
71464;SDS011;59274;49.874;9.154;2023-07-13T06:08:42;6.07;;;1.93;;
71464;SDS011;59274;49.874;9.154;2023-07-13T06:13:41;4.15;;;1.65;;
71464;SDS011;59274;49.874;9.154;2023-07-13T06:16:07;1.80;;;1.10;;
71464;SDS011;59274;49.874;9.154;2023-07-13T06:18:34;3.30;;;1.40;;
71464;SDS011;59274;49.874;9.154;2023-07-13T06:21:01;3.30;;;1.20;;
71464;SDS011;59274;49.874;9.154;2023-07-13T06:23:36;1.88;;;0.80;;
71464;SDS011;59274;49.874;9.154;2023-07-13T06:26:03;2.85;;;1.10;;
71464;SDS011;59274;49.874;9.154;2023-07-13T06:28:29;3.42;;;1.02;;
71464;SDS011;59274;49.874;9.154;2023-07-13T06:30:56;2.38;;;1.10;;
71464;SDS011;59274;49.874;9.154;2023-07-13T06:33:22;2.07;;;0.73;;
71464;SDS011;59274;49.874;9.154;2023-07-13T06:35:47;3.80;;;0.97;;
71464;SDS011;59274;49.874;9.154;2023-07-13T06:38:13;3.22;;;0.95;;
71464;SDS011;59274;49.874;9.154;2023-07-13T06:40:38;2.23;;;0.80;;
71464;SDS011;59274;49.874;9.154;2023-07-13T06:43:04;4.00;;;1.20;;
71464;SDS011;59274;49.874;9.154;2023-07-13T06:45:29;2.40;;;0.90;;
71464;SDS011;59274;49.874;9.154;2023-07-13T06:47:55;2.88;;;1.10;;
71464;SDS011;59274;49.874;9.154;2023-07-13T06:50:20;2.10;;;0.80;;
71464;SDS011;59274;49.874;9.154;2023-07-13T06:52:46;1.67;;;0.80;;
71464;SDS011;59274;49.874;9.154;2023-07-13T06:55:11;2.60;;;0.90;;
71464;SDS011;59274;49.874;9.154;2023-07-13T06:57:36;1.73;;;1.00;;
71464;SDS011;59274;49.874;9.154;2023-07-13T07:00:02;2.67;;;0.90;;
71464;SDS011;59274;49.874;9.154;2023-07-13T07:02:27;2.87;;;0.90;;
71464;SDS011;59274;49.874;9.154;2023-07-13T07:04:53;1.70;;;0.90;;
71464;SDS011;59274;49.874;9.154;2023-07-13T07:07:19;2.55;;;0.98;;
71464;SDS011;59274;49.874;9.154;2023-07-13T07:09:44;2.37;;;1.10;;
71464;SDS011;59274;49.874;9.154;2023-07-13T07:12:10;2.95;;;0.88;;
71464;SDS011;59274;49.874;9.154;2023-07-13T07:14:35;2.53;;;0.80;;
71464;SDS011;59274;49.874;9.154;2023-07-13T07:17:01;2.43;;;0.93;;
71464;SDS011;59274;49.874;9.154;2023-07-13T07:19:29;2.83;;;0.77;;
71464;SDS011;59274;49.874;9.154;2023-07-13T07:21:55;3.65;;;0.90;;
71464;SDS011;59274;49.874;9.154;2023-07-13T07:24:21;3.50;;;0.97;;
71464;SDS011;59274;49.874;9.154;2023-07-13T07:26:46;4.07;;;0.83;;
71464;SDS011;59274;49.874;9.154;2023-07-13T07:29:12;1.73;;;0.80;;
71464;SDS011;59274;49.874;9.154;2023-07-13T07:31:37;3.63;;;1.00;;
71464;SDS011;59274;49.874;9.154;2023-07-13T07:34:02;2.23;;;0.70;;
71464;SDS011;59274;49.874;9.154;2023-07-13T07:36:28;2.73;;;0.90;;
71464;SDS011;59274;49.874;9.154;2023-07-13T07:38:53;4.53;;;1.02;;
71464;SDS011;59274;49.874;9.154;2023-07-13T07:41:19;2.13;;;0.80;;
71464;SDS011;59274;49.874;9.154;2023-07-13T07:43:44;1.93;;;0.87;;
71464;SDS011;59274;49.874;9.154;2023-07-13T07:46:12;1.60;;;0.68;;
71464;SDS011;59274;49.874;9.154;2023-07-13T07:48:38;1.83;;;0.93;;
71464;SDS011;59274;49.874;9.154;2023-07-13T07:51:04;2.30;;;0.70;;
71464;SDS011;59274;49.874;9.154;2023-07-13T07:53:30;1.73;;;1.00;;
71464;SDS011;59274;49.874;9.154;2023-07-13T07:55:55;1.50;;;0.77;;
71464;SDS011;59274;49.874;9.154;2023-07-13T07:58:21;2.10;;;1.00;;
71464;SDS011;59274;49.874;9.154;2023-07-13T08:00:46;2.95;;;1.00;;
71464;SDS011;59274;49.874;9.154;2023-07-13T08:03:12;2.50;;;0.87;;
71464;SDS011;59274;49.874;9.154;2023-07-13T08:05:37;1.20;;;0.83;;
71464;SDS011;59274;49.874;9.154;2023-07-13T08:08:03;2.15;;;0.95;;
71464;SDS011;59274;49.874;9.154;2023-07-13T08:10:29;3.67;;;1.10;;
71464;SDS011;59274;49.874;9.154;2023-07-13T08:12:57;3.20;;;1.30;;
71464;SDS011;59274;49.874;9.154;2023-07-13T08:15:23;4.93;;;1.43;;
71464;SDS011;59274;49.874;9.154;2023-07-13T08:17:48;2.38;;;0.85;;
71464;SDS011;59274;49.874;9.154;2023-07-13T08:20:14;2.10;;;0.87;;
71464;SDS011;59274;49.874;9.154;2023-07-13T08:22:41;2.95;;;1.00;;
71464;SDS011;59274;49.874;9.154;2023-07-13T08:25:07;3.90;;;0.80;;
71464;SDS011;59274;49.874;9.154;2023-07-13T08:27:33;1.77;;;0.90;;
71464;SDS011;59274;49.874;9.154;2023-07-13T08:29:58;2.60;;;0.80;;
71464;SDS011;59274;49.874;9.154;2023-07-13T08:32:24;4.47;;;1.10;;
71464;SDS011;59274;49.874;9.154;2023-07-13T08:34:50;3.35;;;0.85;;
71464;SDS011;59274;49.874;9.154;2023-07-13T08:37:15;2.53;;;0.80;;
71464;SDS011;59274;49.874;9.154;2023-07-13T08:39:42;2.40;;;0.93;;
71464;SDS011;59274;49.874;9.154;2023-07-13T08:44:54;2.72;;;1.05;;
71464;SDS011;59274;49.874;9.154;2023-07-13T08:47:22;2.42;;;1.00;;
71464;SDS011;59274;49.874;9.154;2023-07-13T08:49:49;1.95;;;0.90;;
71464;SDS011;59274;49.874;9.154;2023-07-13T08:52:25;2.65;;;1.10;;
71464;SDS011;59274;49.874;9.154;2023-07-13T08:54:58;3.35;;;0.90;;
71464;SDS011;59274;49.874;9.154;2023-07-13T08:57:36;2.75;;;0.90;;
71464;SDS011;59274;49.874;9.154;2023-07-13T09:00:05;2.83;;;1.13;;
71464;SDS011;59274;49.874;9.154;2023-07-13T09:02:38;2.08;;;1.10;;
71464;SDS011;59274;49.874;9.154;2023-07-13T09:05:17;2.33;;;1.02;;
71464;SDS011;59274;49.874;9.154;2023-07-13T09:10:50;1.75;;;1.00;;
71464;SDS011;59274;49.874;9.154;2023-07-13T09:16:28;2.35;;;1.17;;
71464;SDS011;59274;49.874;9.154;2023-07-13T09:18:54;3.17;;;1.17;;
71464;SDS011;59274;49.874;9.154;2023-07-13T09:21:34;3.35;;;1.20;;
71464;SDS011;59274;49.874;9.154;2023-07-13T09:26:57;1.63;;;1.10;;
71464;SDS011;59274;49.874;9.154;2023-07-13T09:29:28;3.42;;;1.23;;
71464;SDS011;59274;49.874;9.154;2023-07-13T09:32:01;2.65;;;1.15;;
71464;SDS011;59274;49.874;9.154;2023-07-13T09:34:31;3.95;;;1.17;;
71464;SDS011;59274;49.874;9.154;2023-07-13T09:36:58;3.92;;;1.13;;
71464;SDS011;59274;49.874;9.154;2023-07-13T09:39:30;2.08;;;1.20;;
71464;SDS011;59274;49.874;9.154;2023-07-13T09:42:07;3.25;;;1.00;;
71464;SDS011;59274;49.874;9.154;2023-07-13T09:44:39;3.80;;;1.10;;
71464;SDS011;59274;49.874;9.154;2023-07-13T09:47:20;3.38;;;1.00;;
71464;SDS011;59274;49.874;9.154;2023-07-13T09:49:49;2.13;;;1.20;;
71464;SDS011;59274;49.874;9.154;2023-07-13T09:52:27;2.38;;;1.10;;
71464;SDS011;59274;49.874;9.154;2023-07-13T09:55:15;3.05;;;1.45;;
71464;SDS011;59274;49.874;9.154;2023-07-13T09:57:47;2.60;;;1.02;;
71464;SDS011;59274;49.874;9.154;2023-07-13T10:00:19;2.83;;;0.80;;
71464;SDS011;59274;49.874;9.154;2023-07-13T10:02:50;4.78;;;1.33;;
71464;SDS011;59274;49.874;9.154;2023-07-13T10:05:30;1.77;;;1.10;;
71464;SDS011;59274;49.874;9.154;2023-07-13T10:08:03;1.63;;;0.90;;
71464;SDS011;59274;49.874;9.154;2023-07-13T10:10:32;2.92;;;1.05;;
71464;SDS011;59274;49.874;9.154;2023-07-13T10:12:58;3.58;;;1.20;;
71464;SDS011;59274;49.874;9.154;2023-07-13T10:15:24;2.17;;;1.27;;
71464;SDS011;59274;49.874;9.154;2023-07-13T10:17:51;2.17;;;1.10;;
71464;SDS011;59274;49.874;9.154;2023-07-13T10:20:20;2.55;;;1.13;;
71464;SDS011;59274;49.874;9.154;2023-07-13T10:22:59;2.78;;;1.00;;
71464;SDS011;59274;49.874;9.154;2023-07-13T10:25:29;1.90;;;1.00;;
71464;SDS011;59274;49.874;9.154;2023-07-13T10:28:06;3.63;;;1.20;;
71464;SDS011;59274;49.874;9.154;2023-07-13T10:30:52;2.83;;;1.25;;
71464;SDS011;59274;49.874;9.154;2023-07-13T10:33:22;2.03;;;1.10;;
71464;SDS011;59274;49.874;9.154;2023-07-13T10:35:48;2.38;;;1.10;;
71464;SDS011;59274;49.874;9.154;2023-07-13T10:38:20;2.10;;;0.90;;
71464;SDS011;59274;49.874;9.154;2023-07-13T10:40:55;2.47;;;1.10;;
71464;SDS011;59274;49.874;9.154;2023-07-13T10:43:28;1.13;;;1.00;;
71464;SDS011;59274;49.874;9.154;2023-07-13T10:46:02;1.20;;;1.00;;
71464;SDS011;59274;49.874;9.154;2023-07-13T10:48:30;3.58;;;0.90;;
71464;SDS011;59274;49.874;9.154;2023-07-13T10:50:59;2.40;;;1.00;;
71464;SDS011;59274;49.874;9.154;2023-07-13T10:53:30;2.53;;;1.20;;
71464;SDS011;59274;49.874;9.154;2023-07-13T10:55:59;3.58;;;1.00;;
71464;SDS011;59274;49.874;9.154;2023-07-13T10:58:32;3.97;;;0.90;;
71464;SDS011;59274;49.874;9.154;2023-07-13T11:01:04;2.22;;;1.15;;
71464;SDS011;59274;49.874;9.154;2023-07-13T11:08:53;4.40;;;1.20;;
71464;SDS011;59274;49.874;9.154;2023-07-13T11:11:35;2.50;;;0.70;;
71464;SDS011;59274;49.874;9.154;2023-07-13T11:14:05;3.42;;;1.10;;
71464;SDS011;59274;49.874;9.154;2023-07-13T11:16:52;2.83;;;1.20;;
71464;SDS011;59274;49.874;9.154;2023-07-13T11:22:26;3.67;;;1.00;;
71464;SDS011;59274;49.874;9.154;2023-07-13T11:27:31;2.30;;;1.10;;
71464;SDS011;59274;49.874;9.154;2023-07-13T11:30:07;2.08;;;0.93;;
71464;SDS011;59274;49.874;9.154;2023-07-13T11:32:33;3.00;;;1.35;;
71464;SDS011;59274;49.874;9.154;2023-07-13T11:34:58;2.87;;;1.30;;
71464;SDS011;59274;49.874;9.154;2023-07-13T11:37:24;4.35;;;1.17;;
71464;SDS011;59274;49.874;9.154;2023-07-13T11:39:53;1.98;;;1.40;;
71464;SDS011;59274;49.874;9.154;2023-07-13T11:42:19;2.90;;;0.90;;
71464;SDS011;59274;49.874;9.154;2023-07-13T11:44:49;1.63;;;0.80;;
71464;SDS011;59274;49.874;9.154;2023-07-13T11:47:20;2.45;;;1.10;;
71464;SDS011;59274;49.874;9.154;2023-07-13T11:49:53;1.20;;;0.98;;
71464;SDS011;59274;49.874;9.154;2023-07-13T11:52:35;1.92;;;1.00;;
71464;SDS011;59274;49.874;9.154;2023-07-13T11:55:03;1.58;;;1.10;;
71464;SDS011;59274;49.874;9.154;2023-07-13T11:57:41;2.45;;;1.35;;
71464;SDS011;59274;49.874;9.154;2023-07-13T12:00:22;3.28;;;1.08;;
71464;SDS011;59274;49.874;9.154;2023-07-13T12:02:52;2.00;;;1.20;;
71464;SDS011;59274;49.874;9.154;2023-07-13T12:05:19;2.17;;;1.10;;
71464;SDS011;59274;49.874;9.154;2023-07-13T12:07:48;1.92;;;1.17;;
71464;SDS011;59274;49.874;9.154;2023-07-13T12:13:03;3.22;;;1.20;;
71464;SDS011;59274;49.874;9.154;2023-07-13T12:18:28;1.85;;;1.58;;
71464;SDS011;59274;49.874;9.154;2023-07-13T12:20:56;1.63;;;1.10;;
71464;SDS011;59274;49.874;9.154;2023-07-13T12:23:25;2.83;;;1.20;;
71464;SDS011;59274;49.874;9.154;2023-07-13T12:25:55;3.83;;;1.00;;
71464;SDS011;59274;49.874;9.154;2023-07-13T12:29:11;1.35;;;0.90;;
71464;SDS011;59274;49.874;9.154;2023-07-13T12:33:55;4.47;;;1.30;;
71464;SDS011;59274;49.874;9.154;2023-07-13T12:36:25;2.00;;;1.08;;
71464;SDS011;59274;49.874;9.154;2023-07-13T12:38:51;2.75;;;1.20;;
71464;SDS011;59274;49.874;9.154;2023-07-13T12:41:16;2.93;;;1.30;;
71464;SDS011;59274;49.874;9.154;2023-07-13T12:43:42;3.60;;;1.38;;
71464;SDS011;59274;49.874;9.154;2023-07-13T12:46:20;2.90;;;1.10;;
71464;SDS011;59274;49.874;9.154;2023-07-13T12:48:52;3.60;;;1.23;;
71464;SDS011;59274;49.874;9.154;2023-07-13T12:51:21;2.97;;;1.30;;
71464;SDS011;59274;49.874;9.154;2023-07-13T12:53:51;2.33;;;1.20;;
71464;SDS011;59274;49.874;9.154;2023-07-13T12:56:23;4.07;;;1.40;;
71464;SDS011;59274;49.874;9.154;2023-07-13T12:58:51;3.33;;;1.40;;
71464;SDS011;59274;49.874;9.154;2023-07-13T13:01:25;2.90;;;1.15;;
71464;SDS011;59274;49.874;9.154;2023-07-13T13:03:53;2.30;;;1.30;;
71464;SDS011;59274;49.874;9.154;2023-07-13T13:06:25;3.75;;;1.17;;
71464;SDS011;59274;49.874;9.154;2023-07-13T13:08:53;4.72;;;1.27;;
71464;SDS011;59274;49.874;9.154;2023-07-13T13:11:24;3.23;;;1.10;;
71464;SDS011;59274;49.874;9.154;2023-07-13T13:13:51;2.80;;;1.30;;
71464;SDS011;59274;49.874;9.154;2023-07-13T13:16:19;2.17;;;1.20;;
71464;SDS011;59274;49.874;9.154;2023-07-13T13:18:54;2.25;;;1.10;;
71464;SDS011;59274;49.874;9.154;2023-07-13T13:21:24;1.38;;;1.05;;
71464;SDS011;59274;49.874;9.154;2023-07-13T13:23:51;2.87;;;1.00;;
71464;SDS011;59274;49.874;9.154;2023-07-13T13:26:18;4.13;;;1.13;;
71464;SDS011;59274;49.874;9.154;2023-07-13T13:28:45;2.95;;;1.30;;
71464;SDS011;59274;49.874;9.154;2023-07-13T13:31:12;1.50;;;1.00;;
71464;SDS011;59274;49.874;9.154;2023-07-13T13:33:42;1.70;;;1.15;;
71464;SDS011;59274;49.874;9.154;2023-07-13T13:36:17;3.33;;;1.93;;
71464;SDS011;59274;49.874;9.154;2023-07-13T13:38:44;3.58;;;1.10;;
71464;SDS011;59274;49.874;9.154;2023-07-13T13:41:11;2.03;;;1.30;;
71464;SDS011;59274;49.874;9.154;2023-07-13T13:43:38;3.08;;;1.00;;
71464;SDS011;59274;49.874;9.154;2023-07-13T13:46:15;1.92;;;1.13;;
71464;SDS011;59274;49.874;9.154;2023-07-13T13:48:43;2.47;;;1.10;;
71464;SDS011;59274;49.874;9.154;2023-07-13T13:51:14;4.70;;;1.00;;
71464;SDS011;59274;49.874;9.154;2023-07-13T13:53:44;2.70;;;1.15;;
71464;SDS011;59274;49.874;9.154;2023-07-13T13:56:10;2.05;;;1.10;;
71464;SDS011;59274;49.874;9.154;2023-07-13T13:58:36;3.58;;;1.10;;
71464;SDS011;59274;49.874;9.154;2023-07-13T14:01:02;2.33;;;1.00;;
71464;SDS011;59274;49.874;9.154;2023-07-13T14:03:27;2.03;;;1.13;;
71464;SDS011;59274;49.874;9.154;2023-07-13T14:05:53;4.45;;;1.30;;
71464;SDS011;59274;49.874;9.154;2023-07-13T14:08:22;2.72;;;1.08;;
71464;SDS011;59274;49.874;9.154;2023-07-13T14:10:49;3.83;;;1.20;;
71464;SDS011;59274;49.874;9.154;2023-07-13T14:13:28;2.72;;;1.10;;
71464;SDS011;59274;49.874;9.154;2023-07-13T14:16:01;1.90;;;1.25;;
71464;SDS011;59274;49.874;9.154;2023-07-13T14:18:27;1.97;;;1.00;;
71464;SDS011;59274;49.874;9.154;2023-07-13T14:20:53;2.25;;;1.23;;
71464;SDS011;59274;49.874;9.154;2023-07-13T14:23:21;2.33;;;1.20;;
71464;SDS011;59274;49.874;9.154;2023-07-13T14:25:46;2.67;;;1.10;;
71464;SDS011;59274;49.874;9.154;2023-07-13T14:28:20;2.22;;;1.30;;
71464;SDS011;59274;49.874;9.154;2023-07-13T14:30:49;2.15;;;1.30;;
71464;SDS011;59274;49.874;9.154;2023-07-13T14:33:15;3.20;;;1.10;;
71464;SDS011;59274;49.874;9.154;2023-07-13T14:35:41;2.92;;;1.10;;
71464;SDS011;59274;49.874;9.154;2023-07-13T14:38:11;2.55;;;1.30;;
71464;SDS011;59274;49.874;9.154;2023-07-13T14:40:40;2.70;;;1.40;;
71464;SDS011;59274;49.874;9.154;2023-07-13T14:43:09;2.15;;;1.20;;
71464;SDS011;59274;49.874;9.154;2023-07-13T14:45:35;1.77;;;1.30;;
71464;SDS011;59274;49.874;9.154;2023-07-13T14:48:09;2.30;;;1.30;;
71464;SDS011;59274;49.874;9.154;2023-07-13T14:50:45;3.28;;;1.30;;
71464;SDS011;59274;49.874;9.154;2023-07-13T14:53:12;3.00;;;1.20;;
71464;SDS011;59274;49.874;9.154;2023-07-13T14:55:38;3.65;;;1.20;;
71464;SDS011;59274;49.874;9.154;2023-07-13T14:58:04;3.45;;;1.10;;
71464;SDS011;59274;49.874;9.154;2023-07-13T15:00:29;2.33;;;1.30;;
71464;SDS011;59274;49.874;9.154;2023-07-13T15:02:57;2.38;;;1.20;;
71464;SDS011;59274;49.874;9.154;2023-07-13T15:05:25;2.38;;;1.40;;
71464;SDS011;59274;49.874;9.154;2023-07-13T15:07:55;2.78;;;1.17;;
71464;SDS011;59274;49.874;9.154;2023-07-13T15:10:25;2.38;;;1.30;;
71464;SDS011;59274;49.874;9.154;2023-07-13T15:13:13;2.72;;;1.38;;
71464;SDS011;59274;49.874;9.154;2023-07-13T15:15:44;3.33;;;1.40;;
71464;SDS011;59274;49.874;9.154;2023-07-13T15:18:12;4.15;;;1.90;;
71464;SDS011;59274;49.874;9.154;2023-07-13T15:20:39;2.63;;;1.60;;
71464;SDS011;59274;49.874;9.154;2023-07-13T15:23:04;2.75;;;1.70;;
71464;SDS011;59274;49.874;9.154;2023-07-13T15:25:32;2.77;;;1.60;;
71464;SDS011;59274;49.874;9.154;2023-07-13T15:27:58;3.13;;;1.83;;